Tue, 2022 November 29. @ 11:49 (Europe/Berlin) | Change timezone

Search

Search

Find competitions and teams quickly

Compare

Compare

Click on this h2h icon anywhere to compare teams and see statistics

Fixtures

Fixtures

View today's matches, tomorrow's fixtures, yesterday's results or fixtures on any specific date by using the calendar


Fixtures - 2022.10.18

Group by: leagues | time
Time Home Score Away 1 X 2 H2H
 Soccer Argentina Primera Division 2022
02:30 Sarmiento 2 : 4 San Lorenzo 3.20 2.85 2.42
02:30 Atlético Tucumán 1 : 1 Union Santa Fe 1.71 3.55 4.96
21:30 Colon Santa Fe 1 : 2 Defensa y Justicia 2.28 3.39 2.95
 Hockey Austria Eishockey Liga 2022/2023
19:15 Linz 4 : 1 Innsbruck 2.25 4.23 2.50
19:15 Villach 6 : 4 Asiago 1.34 5.85 6.20
 Soccer Austria ÖFB Stiegl Cup 2022/2023
17:59 Wattens 1 : 4 Rapid Wien 3.46 3.72 1.87
19:00 Dornbirn FC 1 : 2 Austria Klagenfurt 6.03 4.79 1.40
19:30 Horn 2 : 3 Ried SV 2.61 3.28 2.45
20:15 Floridsdorfer AC 1 : 2 LASK Linz 3.98 3.57 1.79
 Soccer Belarus Premier League 2022
14:00 Minsk FK 5 : 0 Slavia Mozyr 2.15 3.27 2.82
16:00 Torpedo Zhodzina 1 : 0 Vitsebsk FK 1.63 3.40 4.75
18:00 Shakhtsyor Salihorsk 3 : 0 Arsenal Dzyarzhynsk 1.19 6.25 10.00
 Soccer Belgium 1e Klasse 2022/2023
18:30 Eupen 4 : 2 Oud Heverlee 2.71 3.54 2.46
18:30 Charleroi 2 : 2 Kortrijk 1.73 3.85 4.41
20:45 RFC Seraing 0 : 1 Cercle Bruggy 3.71 3.53 1.98
20:45 Genk 6 : 1 Westerlo 1.59 4.27 5.09
 Soccer Brazil Serie A 2022
01:00 Bragantino 0 : 2 Santos 2.20 3.10 3.55
 Hockey CHL Kontinental Hockey League 2022/2023
11:30 Admiral Vladivostok 3 : 2 ot(p) Vitiaz Chekhov - - -
18:00 Čerepovec 3 : 4 ot Jaroslavl - - -
18:10 Dynamo Minsk 5 : 3 Sochi - - -
18:30 Spartak Moskva 2 : 5 Ufa - - -
 Soccer Colombia Primera División 2022
00:35 Deportive Cali 1 : 1 Once Caldas 2.87 2.76 2.67
02:40 Alianza Petrolera 0 : 2 América de Cali 3.06 3.06 2.31
 Handball Croatia 1.liga M 2022/2023
18:30 Varteks Di Caprio 27 : 42 Našice NEXE 12.00 19.67 1.05
 Soccer Croatia HR Nogometni Cup 2022/2023
14:59 Solin NK 1 : 2 ot Slaven Belupo 4.31 3.51 1.68
15:00 Jadran Poreč 1 : 2 HNK Sibenik 12.90 6.66 1.15
15:00 Mladost Ždralovi 6 : 0 Oriolik Oriovac 1.17 6.03 12.80
15:00 Dubrava Zagreb 2 : 3 Gorica 4.93 3.86 1.55
15:00 Papuk Orahovica 0 : 2 HNK Osijek 43.00 11.75 1.02
 Hockey Czech Republic Extraleague 2022/2023
17:00 Kometa Brno 2 : 1 Vítkovice 2.06 4.16 2.83
17:30 Plzeň 1 : 2 ot(p) Mladá Boleslav 2.35 4.04 2.47
17:30 Litvínov 0 : 1 ot(p) Pardubice 2.84 4.12 2.05
18:00 Hradec Králové 3 : 2 Sparta Praha 2.24 4.04 2.58
18:00 Liberec 3 : 4 ot(p) Karlovy Vary 1.62 4.54 4.17
18:00 Kladno 2 : 1 České Budějovice 2.42 4.04 2.39
 Soccer Czech Republic Pohár 2022/2023
15:00 Soběslav FK 0 : 2 Karviná FC 9.63 6.15 1.20
17:00 Příbram 0 : 3 Teplice 2.67 3.27 2.31
 Handball Denmark 1st League W 2022/2023
18:30 Ajax Kobenhavn 21 : 23 Ikast/Bording EH 15.33 26.00 1.03
20:30 Viborg HK 40 : 29 Randers HK 1.23 12.67 5.37
 Soccer Denmark Landspokal 2022/2023
15:14 Brabrand 0 : 3 Vejle BK 7.02 4.99 1.34
15:15 Naesby 1 : 2 Nykobing 4.12 4.12 1.62
17:59 Koge HB 1 : 4 Sonderjyll 2.93 3.45 2.17
18:00 Roskilde FC 1906 1 : 2 Fremad Amager 2.90 3.51 2.14
18:00 Thisted 2 : 1 Helsingor 4.18 4.01 1.63
18:00 Vanlose IF 1 : 3 ot Aalborg BK 9.91 6.56 1.20
 Hockey Denmark SuperBest-ligaen 2022/2023
19:00 Herning 4 : 0 Rungsted 1.74 4.41 3.56
 Soccer Ecuador Primera A 2022
02:00 9 de Octubre 0 : 1 Cumbaya 2.57 3.37 2.54
02:00 Técnico Universitario 3 : 1 Macará 2.31 3.13 2.95
 Soccer England Championship 2022/2023
20:45 Norwich 0 : 1 Luton 1.92 3.49 3.94
20:45 Huddersfield 0 : 1 Preston 2.69 3.04 2.77
20:45 Swansea 3 : 2 Reading 2.08 3.28 3.65
21:00 West Bromwich 0 : 2 Bristol City 1.71 3.86 4.59
21:00 Stoke 0 : 1 Rotherham 1.78 3.53 4.71
21:00 Blackburn 2 : 0 Sunderland 2.35 3.13 3.20
 Soccer England FA Cup 2022/2023
20:45 Chippenham Town 1 : 0 Hendon 1.71 3.70 4.02
20:45 Taunton Town 1 : 0 Yeovil 2.73 3.18 2.38
20:45 Chester 2 : 3 ot(p) Oldham 2.64 3.28 2.35
20:45 Fylde 2 : 0 Kidderminster 2.08 3.33 3.07
20:45 Hampton Richmond 1 : 2 Torquay 2.12 3.32 2.96
20:45 Gateshead 2 : 1 Altrincham 2.00 3.51 3.09
21:00 Wrexham 3 : 2 Blyth S. 1.17 6.59 11.00
 Soccer England LDV Trophy 2022/2023
19:59 Hartlepool 0 : 6 Everton U21 1.92 3.61 3.27
19:59 Bristol Rovers 3 : 0 Swindon 1.88 3.59 3.44
19:59 Harrogate Town 2 : 1 Morecambe 2.41 3.41 2.58
19:59 Sheffield Wednesday 2 : 0 Leicester City U21 1.55 4.12 4.60
19:59 Cambridge 1 : 0 Ipswich 4.22 3.49 1.73
19:59 Barrow 2 : 0 Carlisle 1.99 3.18 3.57
19:59 Bolton 3 : 0 Leeds U21 1.48 4.43 4.95
19:59 Derby 1 : 3 Manchester City U21 1.70 3.88 3.92
20:00 Rochdale 2 : 3 ot(p) Salford City 3.08 3.24 2.13
20:00 Walsall 0 : 2 Milton Keynes 2.87 3.21 2.27
20:00 Forest Green 4 : 1 Exeter 2.33 3.47 2.65
20:00 Plymouth 1 : 0 Crystal Palace U21 1.62 4.05 4.29
20:00 Cheltenham 1 : 2 West Ham U21 1.72 3.75 3.87
20:00 Lincoln 2 : 0 Newcastle U21 1.27 5.45 8.06
20:00 Wycombe 2 : 1 ot(p) Peterborough 3.52 3.65 1.85
20:00 Northampton 1 : 3 Arsenal U21 3.87 3.90 1.75
20:00 Stevenage 1 : 0 Tottenham U21 1.71 3.85 3.85
20:14 Burton 4 : 0 Bradford 1.93 3.62 3.32
20:15 Crewe 0 : 1 Tranmere 2.02 3.32 3.45
20:30 Stockport 1 : 0 Shrewsbury 1.52 4.00 5.44
20:30 Port Vale 2 : 0 Wolves U21 1.39 4.66 5.92
20:44 Crawley Town 5 : 2 Aston Villa U21 1.60 4.07 4.24
20:45 Fleetwood Town 3 : 2 ot(p) Manchester United U21 2.16 3.50 2.80
20:45 Accrington Stanley 3 : 2 Liverpool U21 1.52 4.20 4.81
20:45 Sutton UTD 2 : 0 Oxford 3.76 3.62 1.80
20:45 Newport 2 : 1 Southampton U21 1.70 3.82 3.96
21:30 Leyton 2 : 3 Chelsea U21 1.99 3.59 3.10
 Soccer England Premiership 2022/2023
20:30 Brighton 0 : 0 Nottingham 1.39 5.00 7.75
21:15 Crystal Palace 2 : 1 Wolverhampton Wanderers 2.16 3.18 3.56
 Basketball Euroleague Euroleague M 2022/2023
19:00 Žalgiris Kaunas 68 : 65 Virtus Bologna 1.89 12.75 2.07
19:00 Pilsen Istanbul 91 : 92 Pamesa Valencia 1.20 19.00 4.85
19:45 Fenerbahce 84 : 63 Villeurbanne Asvel Lyon 1.23 18.25 4.50
20:05 Maccabi Tel Aviv 78 : 70 Monaco 2.00 12.75 1.96
20:30 Bayern München 73 : 84 Barcelona FC 3.12 15.25 1.42
20:45 Partizan Bělehrad 75 : 80 Milano 2.08 12.75 1.88
 Basketball FIBA EuroCup M 2022/2023
19:30 Hamburg Towers 83 : 88 Ankara Telecom 1.63 13.50 2.49
20:00 Slask Wroclaw 58 : 98 Buducnost Podgorica 2.46 13.50 1.64
20:00 Venezia 73 : 79 Bourg Jeunesse 1.40 15.50 3.24
20:30 London Lions 80 : 75 Pallacanestro Trento 1.92 12.75 2.04
 Hockey Finland Mestis 2022/2023
17:30 KOO-VEE Tampere 4 : 2 Tuto Turku 2.56 4.18 2.11
 Hockey Finland SM Liiga 2022/2023
17:30 Ilves Tampere 2 : 4 Lukko Rauma 2.16 3.83 2.81
17:30 Saipa 4 : 3 ot Jyp Jyväskylä 2.31 3.85 2.58
17:30 Kärpät 2 : 0 Ässät Pori 1.44 4.64 6.00
 Hockey Germany 2. Bundesliga 2022/2023
19:30 Heilbronn 6 : 5 ot(p) Freiburg 2.35 4.47 2.28
19:30 Bad Nauheim 2 : 0 Landshut 2.51 4.44 2.16
19:30 Kaufbeuren 4 : 1 Selb 1.36 5.38 5.88
19:30 Kassel 1 : 3 Lausitzer Füchse 1.37 5.50 5.69
20:00 Regensburg 5 : 4 ot Dresden 3.15 4.25 1.81
20:30 Krefeld 5 : 3 Crimmitschau 1.77 4.40 3.40
 Basketball Germany BBL M 2022/2023
19:00 Rostock Seawolves 110 : 95 ot StadtSport Braunschweig 1.42 15.00 3.11
 Hockey Germany DEL 2022/2023
19:29 Wolfsburg 5 : 1 Norimberk 1.76 4.47 3.60
19:30 Iserlohn Roosters 7 : 1 Bietigheim 1.72 4.54 3.72
19:30 Ingolstadt ERC 3 : 2 Frankfurt 1.84 4.31 3.34
19:30 Straubing 5 : 2 Augsburg 1.58 4.72 4.33
19:30 Schwenningen 1 : 3 Bremerhaven 2.75 3.90 2.20
 Soccer Germany DFB Pokal 2022/2023
17:59 Stuttgarter Kickers 0 : 2 Frankfurt Eintracht 22.90 10.35 1.10
18:00 Leipzig 4 : 0 Hamburg SV 1.46 4.96 5.88
18:00 Waldhof Mannheim 0 : 1 Nürnberg FC 3.24 3.41 2.16
18:00 Lübeck 0 : 3 Mainz 6.54 4.87 1.44
20:45 Hoffenheim 5 : 1 Schalke 04 1.48 4.75 5.81
20:45 Braunschweig 1 : 2 Wolfsburg 5.15 4.01 1.63
20:45 Elversberg 07 0 : 1 Bochum 2.94 3.44 2.32
20:45 Darmstatd 98 2 : 1 Mönchengladbach 3.38 3.77 2.00
 Soccer Greece Cup 2022/2023
18:00 Volos NFC 4 : 0 Ionikos Nikaia 1.68 3.46 5.03
 Soccer Hungary Magyar Kupa 2022/2023
13:28 Nyíregyháza 1 : 2 Vasas Budapešť 3.73 3.50 1.78
17:00 Raba Eto Gyor 1 : 0 Kecskeméti 3.44 3.41 1.89
 Hockey Ice Hockey NHL 2022/2023
01:07 Toronto 2 : 4 Arizona 1.32 6.00 6.50
01:07 NY Rangers 6 : 4 Anaheim 1.66 4.63 3.92
01:07 Detroit 4 : 5 ot Los Angeles 2.67 4.17 2.17
01:07 Montreal 3 : 2 ot Pittsburgh 3.88 4.65 1.66
01:07 Washington 6 : 4 Vancouver 2.12 4.16 2.77
01:07 Boston 5 : 3 Florida 2.61 4.22 2.20
02:07 Minnesota 3 : 6 Colorado 2.50 4.35 2.24
02:37 Dallas 4 : 1 Winnipeg Jets 2.09 4.11 2.81
04:07 Seattle 1 : 5 Carolina 3.20 4.33 1.87
 Soccer Italy Coppa Italia 2022/2023
18:00 Genoa FC 1 : 0 Spal 1.45 4.25 6.70
21:00 Torino AC 4 : 0 Cittadella 1.40 4.33 7.54
 Soccer Netherlands KNVB Beker 2022/2023
18:45 EW Eindhoven 1 : 0 Tilburg Willem 3.10 3.14 2.19
20:00 Almere City FC 2 : 0 Top Oss 1.57 4.11 4.85
20:00 Harkemase Boys 1 : 5 Volendam 7.22 5.92 1.28
20:00 Urk 2 : 0 Staphorst 2.26 3.57 2.69
20:00 Rijnsburgse Boys 1 : 3 Graafschap 4.61 3.96 1.61
20:00 Excelsior '31 2 : 3 den Haag FC 7.59 5.50 1.30
20:00 GVVV Feyenoord 1 : 3 Den Bosch 3.92 3.94 1.72
20:00 Hoek 2 : 4 ot Heerenveen 19.50 8.74 1.10
20:00 Koninklijke HFC 0 : 1 Telstar 2.83 3.71 2.12
21:00 Kerkade Roda 2 : 3 ot(p) Heracles 2.19 3.38 2.92
 Hockey Norway Eliteserien 2022/2023
18:00 Stavanger 1 : 4 Stjernen 1.50 4.94 4.72
18:30 Storhamar 3 : 1 Ringerike IHK 1.24 6.45 8.30
18:30 Lillehammer 4 : 3 ot Valerenga Oslo 3.52 4.46 1.75
 Handball Poland 1.liga W 2022/2023
18:00 Piotrkow Piotrcovia 25 : 22 Galytchanka Lvov SC 1.29 10.42 4.53
 Hockey Poland Ekstraliga 2022/2023
18:00 Unia Osvětim 0 : 1 Jastrzebie JKH GKS 1.70 4.40 3.50
18:00 Zagłębie Sosnowiec 3 : 1 Podhale Nowy Targ 1.47 4.77 4.57
 Soccer Poland Puchar Polski 2022/2023
14:14 Rekord Bielsko-Biała 2 : 3 ot(p) Pogon Szczecin 12.45 6.82 1.16
14:30 Zaglebie Sosnowiec 0 : 1 Rakow Czestochowa 6.29 4.64 1.37
17:30 Stal Mielec 0 : 3 ot Piast Gliwice 2.61 3.14 2.45
18:30 Kalisz KKS 2 : 0 Olimpia Elbląg 2.12 3.37 2.92
19:15 Bogdanka Leczna 1 : 0 Korona Kielce 2.63 3.18 2.42
20:30 Plock 0 : 3 Legia Warszawa 3.00 3.22 2.18
 Soccer Portugal Liga Vitalis 2022/2023
19:00 Benfica Lisabon B 5 : 1 Mafra 2.35 3.33 2.63
19:00 Torreense 0 : 1 Belenenses 1.89 3.34 3.60
21:29 Feirense 1 : 2 Moreirense 2.98 3.17 2.20
 Soccer Romania Cupa Romaniei 2022/2023
14:30 Alexandria 2 : 2 Farul Constanta 7.88 4.73 1.30
17:15 Dumbravita 1 : 4 Rapid Bukurešť 19.00 7.38 1.11
20:00 Dinamo Bukurešť 0 : 0 U Craiova 1948 7.50 4.00 1.37
 Basketball Russia 1st League W 2022/2023
11:00 Krasnoyarsk Shelen 70 : 65 Rostov - - -
12:00 Moskva Dynamo 71 : 88 Novosibirsk Dynamo-Energiya - - -
16:00 Ekaterinburg UMMC 68 : 63 Orenburg Nadezhda - - -
16:00 Moskovskaya obl. Dynamo 72 : 64 Nika Syktyvkar - - -
18:30 Kursk Dynamo 93 : 75 Samara - - -
 Soccer Russia Cup 2022/2023
17:00 Lokomotiv Moskva 1 : 0 Khimki FK - - -
19:30 Dynamo Moskva 3 : 1 Rostselmash Rostov - - -
 Soccer Scotland First Division 2022/2023
20:45 Caledonian Thistle 0 : 1 Hamilton 1.86 3.40 3.71
 Soccer Scotland League Cup 2022/2023
20:45 Kilmarnock FC 2 : 1 Dundee Utd. 2.25 3.13 2.98
 Soccer Scotland Second Division 2022/2023
20:45 Falkirk FC 3 : 1 Alloa 1.81 3.42 3.66
20:45 Clyde 0 : 2 Dunfermline 5.69 4.03 1.47
 Soccer Slovakia Cup 2022/2023
14:28 Humenné 2 : 1 Dunajská Streda 5.84 4.22 1.46
14:29 Považská Bystrica 2 : 3 ot(p) Zlaté Moravce 3.99 3.82 1.71
14:29 Pohronie FK 0 : 1 Liptovský Mikuláš 3.74 3.51 1.84
14:30 Kežmarok 0 : 1 Banská Bystrica - - -
 Hockey Slovakia Extraliga 2022/2023
18:00 Banská Bystrica 5 : 6 Košice 2.46 4.19 2.29
 Soccer Slovenia Cup 2022/2023
15:00 Primorje Ajdovščina 3 : 1 Tolmin 1.44 4.44 5.19
17:30 Domzale 3 : 1 Ilirija 1.33 4.68 7.00
18:00 Maribor Branik NK 9 : 0 Limbuš Pekre - - -
18:30 Aluminij Kidricevo 11 : 0 Bukovci - - -
 Soccer Spain La Liga 2022/2023
19:00 Sevilla 1 : 1 Valencia FC 2.29 3.33 3.13
20:00 Getafe 2 : 2 Bilbao 4.54 3.28 1.88
21:00 Atletico Madrid 1 : 1 Vallecano Madrid 1.57 3.84 6.43
 Hockey Sweden Elitserien 2022/2023
19:00 Örebro HK 6 : 3 Skelleftea AIK 2.48 4.10 2.41
19:00 Lulea HF 2 : 0 Linköpings 1.66 4.35 4.38
 Soccer Sweden Superettan 2022
19:00 Brage 0 : 0 Skövde AIK 2.56 3.34 2.50
 Soccer Switzerland Challenge League 2022/2023
20:15 Wil 1 : 0 Lausanne 2.45 3.30 2.61
 Hockey Switzerland Nationalliga A 2022/2023
19:44 Biel Bienne EHC 4 : 1 Davos 2.05 4.07 2.89
19:45 SC Curych 2 : 1 Fribourg 1.93 4.05 3.24
19:45 Kloten 4 : 3 ot(p) Ajoie 1.91 4.28 3.15
19:45 Rapperswill 2 : 1 ot Servette GE 2.26 4.14 2.57
19:45 Bern 2 : 3 Langnau 1.44 5.20 5.50
19:45 Lugano 6 : 1 Zug 2.71 4.12 2.17
19:45 Lausanne 1 : 2 ot Ambri Piota 2.00 4.12 3.02
 Hockey Switzerland Nationalliga B 2022/2023
19:45 Basel EHC 3 : 1 GCK Lions 1.95 4.46 2.73
19:46 Langenthal 4 : 9 Olten 2.64 4.38 2.01
19:59 Ticino Rockets 1 : 2 ot(p) Visp 4.71 5.20 1.44
20:00 Thurgau 3 : 2 ot Chaux de Fonds 3.77 4.56 1.62
20:00 Sierre 3 : 1 Winterthur 1.33 5.50 6.00
 Soccer Switzerland Super League 2022/2023
20:30 Winterthur 1 : 0 Sion FC 3.20 3.50 2.12
 Soccer Turkey Türkiye Kupasi 2022/2023
12:00 Kasimpasa SK Istanbul 2 : 1 ot Mersin Idmanyurdu SK 1.18 6.78 11.36
12:30 Serik Belediyespor 2 : 1 Batman Petrolspor 1.83 3.46 3.64
13:00 Manisa BBSK 2 : 1 ot(p) Eynesil Belediyespor 1.49 4.23 5.08
13:00 Altay Izmir 1 : 2 ot Efeler 09 Spor 2.34 3.34 2.69
13:00 Ankaraspor 2 : 1 ot Pazar SK 1.33 4.79 7.44
13:59 Caykur Rizespor 3 : 0 Boyabat 1868 Spor 1.03 13.70 28.70
16:30 Kayserispor II 2 : 1 Igdir Belediyespor 1.15 7.02 12.75
19:29 Demirspor 5 : 0 Adiyamanspor 1.07 10.35 23.80
 Soccer Ucraine Premier League 2022/2023
12:00 Lvov FC 1 : 3 Veres Rivne 3.26 2.99 2.22
14:00 Oleksandrija FK 2 : 0 Kryvbas Kryvyj Rig 1.99 3.23 3.57
14:00 Černomorec Oděsa 0 : 4 Zorya Luhansk 3.02 3.24 2.22
 Soccer United States MLS 2022
01:00 New York City FC 3 : 0 Inter Miami 1.73 3.75 4.51
03:30 Dallas Burn 2 : 1 ot(p) Minnesota United FC 1.90 3.62 3.70
 Soccer Uruguay Primera Division 2022
01:30 Cerrito CS 1 : 2 Nacional 14.20 6.65 1.16

Sport statistics

  • soccer, basketball, handball and icehockey statistics from more than 150 leagues (results, tables, fixtures, other usefull statistics, bookies odds etc.)
  • other useful things: comparision of teams and leagues, streaks, selections, predictions, head-to-head
  • the statistics are updated three times each day
  • RSS feeds for the upcoming matches from each sport, just click on the RSS feed in the URL field of your browser
  • archived competitions, most of them from 2003

For a detailed description of all functions and their usage check our Help page.